Home > Products > Valid Products > TAF

000
FTUS44 KLCH 251120
TAFLFT
TAF
KLFT 251120Z 2512/2612 00000KT P6SM SCT025 BKN035
      TEMPO 2512/2514 3SM BR BKN025 OVC035
     FM251400 17010G18KT P6SM VCSH SCT025 BKN035
     FM251700 18012G20KT P6SM VCTS BKN035CB
      TEMPO 2521/2601 VRB20G30KT 2SM +TSRA OVC025CB
     FM260200 15008KT P6SM VCTS BKN035CB=



000
FTUS44 KLCH 251120
TAFAEX
TAF
KAEX 251120Z 2512/2612 16003KT 6SM BR SCT005 BKN150
      TEMPO 2512/2513 3SM BR OVC004
     FM251500 17010KT P6SM VCSH SCT025 BKN035
     FM251800 18013G21KT P6SM VCTS BKN035CB
      TEMPO 2521/2601 VRB20G30KT 2SM +TSRA OVC025CB
     FM260200 15007KT P6SM VCTS BKN040CB=



000
FTUS44 KLCH 251120
TAFBPT
TAF
KBPT 251120Z 2512/2612 16005KT 6SM BR SKC
      TEMPO 2512/2514 3SM BR
     FM251400 17015G23KT P6SM VCSH SCT025 BKN035
     FM251700 18018G26KT P6SM VCTS BKN035CB
      TEMPO 2520/2524 VRB20G30KT 2SM +TSRA OVC025CB
     FM260100 15011KT P6SM VCTS BKN035CB=



000
FTUS44 KLCH 251120
TAFARA
TAF
KARA 251120Z 2512/2612 00000KT P6SM SCT025 BKN035
      TEMPO 2512/2514 3SM BR BKN025 OVC035
     FM251400 17012G20KT P6SM VCSH SCT025 BKN035
     FM251700 18015G23KT P6SM VCTS BKN035CB
      TEMPO 2521/2601 VRB20G30KT 2SM +TSRA OVC025CB
     FM260200 15010KT P6SM VCTS BKN035CB=



000
FTUS44 KLCH 251120
TAFLCH
TAF
KLCH 251120Z 2512/2612 16005KT 6SM BR SKC
      TEMPO 2512/2514 3SM BR
     FM251400 17013G21KT P6SM VCSH SCT025 BKN035
     FM251700 18015G23KT P6SM VCTS BKN035CB
      TEMPO 2520/2524 VRB20G30KT 2SM +TSRA OVC025CB
     FM260100 15010KT P6SM VCTS BKN035CB=



000
FTUS44 KLCH 250903 AAA
TAFAEX
TAF AMD
KAEX 250903Z 2509/2606 16003KT 6SM BR SCT005 BKN150
      TEMPO 2509/2513 OVC005
     FM251500 17010KT P6SM VCSH SCT025 BKN035
     FM251800 18013G21KT P6SM VCTS BKN035CB
      TEMPO 2520/2524 VRB20G30KT 2SM TSRA OVC025CB
     FM260000 15007KT P6SM VCTS BKN040CB=



000
FTUS44 KLCH 250903 AAA
TAFAEX
TAF AMD
KAEX 250903Z 2509/2606 16003KT 6SM BR SCT005 BKN150
      TEMPO 2509/2513 OVC005
     FM251500 17010KT P6SM VCSH SCT025 BKN035
     FM251800 18013G21KT P6SM VCTS BKN035CB
      TEMPO 2520/2524 VRB20G30KT 2SM TSRA OVC025CB
     FM260000 15007KT P6SM VCTS BKN040CB=



000
FTUS44 KLCH 250738 AAA
TAFLFT
TAF AMD
KLFT 250738Z 2508/2606 00000KT P6SM SCT025 BKN035
      TEMPO 2510/2514 3SM BR BKN025 OVC035
     FM251400 15010KT P6SM VCTS BKN025CB
     FM251800 15012KT P6SM VCTS BKN045CB
     FM260000 15006KT P6SM BKN150=



000
FTUS44 KLCH 250520
TAFLCH
TAF
KLCH 250520Z 2506/2606 14003KT P6SM SCT025 BKN150
     FM251400 15010KT P6SM VCTS BKN025CB
     FM251800 16015KT P6SM VCTS BKN045CB
     FM260000 16006KT P6SM BKN150=



000
FTUS44 KLCH 250520
TAFBPT
TAF
KBPT 250520Z 2506/2606 17004KT P6SM SCT022 BKN150
     FM251500 15010KT P6SM VCTS BKN025CB
     FM251800 16015KT P6SM VCTS BKN045CB
     FM260000 16006KT P6SM BKN150=



000
FTUS44 KLCH 250520
TAFLFT
TAF
KLFT 250520Z 2506/2606 14003KT P6SM SCT015 BKN150
     FM251500 15010KT P6SM VCTS BKN025CB
     FM251800 15012KT P6SM VCTS BKN045CB
     FM260000 15006KT P6SM BKN150=



000
FTUS44 KLCH 250520
TAFAEX
TAF
KAEX 250520Z 2506/2606 16005KT P6SM SCT025 BKN150
     FM251500 13010KT P6SM VCTS BKN025CB
     FM251800 13012KT P6SM VCTS BKN045CB
     FM260000 13006KT P6SM BKN150=



000
FTUS44 KLCH 250520
TAFARA
TAF
KARA 250520Z 2506/2606 13006KT P6SM SCT015 BKN150
     FM251500 15010KT P6SM VCTS BKN025CB
     FM251800 15012KT P6SM VCTS BKN045CB
     FM260000 15006KT P6SM BKN150=



000
FTUS44 KLCH 250301 AAA
TAFLFT
TAF AMD
KLFT 250301Z 2503/2524 00000KT P6SM OVC110
     FM251000 15003KT 4SM BR BKN150
     FM251500 15010KT P6SM VCTS BKN025CB
     FM251800 15012KT P6SM VCTS BKN045CB=



000
FTUS44 KLCH 250257 AAA
TAFARA
TAF AMD
KARA 250257Z 2503/2524 12006KT P6SM OVC100
     FM251500 15010KT P6SM VCTS BKN025CB
     FM251800 15012KT P6SM VCTS BKN045CB=



000
FTUS44 KLCH 242321
TAFARA
TAF
KARA 242321Z 2500/2524 13003KT P6SM VCTS SCT025CB BKN100
      TEMPO 2500/2503 4SM TSRA BKN015CB
     FM251000 15003KT 4SM BR BKN150
     FM251500 15010KT P6SM VCTS BKN025CB
     FM251800 15012KT P6SM VCTS BKN045CB=



000
FTUS44 KLCH 242321
TAFBPT
TAF
KBPT 242321Z 2500/2524 13006KT P6SM SCT025 BKN150
     FM251000 15003KT 4SM BR BKN150
     FM251500 15010KT P6SM VCTS BKN025CB
     FM251800 16015KT P6SM VCTS BKN045CB=



000
FTUS44 KLCH 242321
TAFAEX
TAF
KAEX 242321Z 2500/2524 18005KT P6SM SCT025 BKN150
     FM251000 13003KT 4SM BR BKN150
     FM251500 13010KT P6SM VCTS BKN025CB
     FM251800 13012KT P6SM VCTS BKN045CB=



000
FTUS44 KLCH 242321
TAFLFT
TAF
KLFT 242321Z 2500/2524 15003KT P6SM VCTS SCT025CB BKN100
      TEMPO 2500/2503 4SM TSRA BKN015CB
     FM251000 15003KT 4SM BR BKN150
     FM251500 15010KT P6SM VCTS BKN025CB
     FM251800 15012KT P6SM VCTS BKN045CB=



000
FTUS44 KLCH 242321
TAFLCH
TAF
KLCH 242321Z 2500/2524 16004KT P6SM SCT025 BKN150
     FM251000 15003KT 4SM BR BKN150
     FM251500 15010KT P6SM VCTS BKN025CB
     FM251800 16015KT P6SM VCTS BKN045CB=



000
FTUS44 KLCH 242321
TAFBPT
TAF
KBPT 242321Z 2500/2524 13006KT P6SM SCT025 BKN150
     FM251000 15003KT 4SM BR BKN150
     FM251500 15010KT P6SM VCTS BKN025CB
     FM251800 16015KT P6SM VCTS BKN045CB=



000
FTUS44 KLCH 242321
TAFAEX
TAF
KAEX 242321Z 2500/2524 18005KT P6SM SCT025 BKN150
     FM251000 13003KT 4SM BR BKN150
     FM251500 13010KT P6SM VCTS BKN025CB
     FM251800 13012KT P6SM VCTS BKN045CB=



000
FTUS44 KLCH 242321
TAFARA
TAF
KARA 242321Z 2500/2524 13003KT P6SM VCTS SCT025CB BKN100
      TEMPO 2500/2503 4SM TSRA BKN015CB
     FM251000 15003KT 4SM BR BKN150
     FM251500 15010KT P6SM VCTS BKN025CB
     FM251800 15012KT P6SM VCTS BKN045CB=



000
FTUS44 KLCH 242321
TAFLCH
TAF
KLCH 242321Z 2500/2524 16004KT P6SM SCT025 BKN150
     FM251000 15003KT 4SM BR BKN150
     FM251500 15010KT P6SM VCTS BKN025CB
     FM251800 16015KT P6SM VCTS BKN045CB=



000
FTUS44 KLCH 242321
TAFLFT
TAF
KLFT 242321Z 2500/2524 15003KT P6SM VCTS SCT025CB BKN100
      TEMPO 2500/2503 4SM TSRA BKN015CB
     FM251000 15003KT 4SM BR BKN150
     FM251500 15010KT P6SM VCTS BKN025CB
     FM251800 15012KT P6SM VCTS BKN045CB=



000
FTUS44 KLCH 242150 AAB
TAFLFT
TAF AMD
KLFT 242150Z 2422/2518 20011G19KT 4SM -TSRA BR FEW008CB BKN028
      OVC045
     FM250000 17008KT P6SM VCSH SCT050 BKN100
     FM250200 VRB04KT P6SM SCT120 BKN200=



000
FTUS44 KLCH 242137 AAC
TAFARA
TAF AMD
KARA 242137Z 2422/2518 17010KT P6SM VCSH SCT025 BKN035 OVC045
      TEMPO 2422/2423 23015G35KT 1SM TSRA BKN020CB OVC050
     FM242300 17010G16KT P6SM VCSH SCT050 BKN100
     FM250200 15007KT P6SM SCT120 BKN200=



000
FTUS44 KLCH 242124 AAB
TAFARA
TAF AMD
KARA 242124Z 2421/2518 17010KT P6SM VCSH SCT025 BKN035 OVC045
      TEMPO 2421/2423 4SM TSRA BKN025CB BKN040 OVC070
     FM242300 17010G16KT P6SM VCSH SCT050 BKN100
     FM250200 15007KT P6SM SCT120 BKN200=



000
FTUS44 KLCH 242122 AAA
TAFARA
TAF AMD
KARA 242122Z 2421/2518 17013KT P6SM VCSH SCT025 BKN035 OVC045
      TEMPO 2421/2423 SHRA SCT025 BKN040 OVC070
     FM242300 17010G16KT P6SM VCSH SCT050 BKN100
     FM250200 15007KT P6SM SCT120 BKN200=



000
FTUS44 KLCH 242122 AAA
TAFARA
TAF AMD
KARA 242122Z 2421/2518 17013KT P6SM VCSH SCT025 BKN035 OVC045
      TEMPO 2421/2423 SHRA SCT025 BKN040 OVC070
     FM242300 17010G16KT P6SM VCSH SCT050 BKN100
     FM250200 15007KT P6SM SCT120 BKN200=



000
FTUS44 KLCH 242118 AAA
TAFLFT
TAF AMD
KLFT 242118Z 2421/2518 16009KT P6SM VCSH BKN025 BKN035
      TEMPO 2421/2423 SCT025 OVC040
     FM250000 17008KT P6SM VCSH SCT050 BKN100
     FM250200 VRB04KT P6SM SCT120 BKN200=



000
FTUS44 KLCH 242117 AAC
TAFAEX
TAF AMD
KAEX 242117Z 2421/2518 19007KT P6SM VCSH SCT040
     FM250000 17010G16KT P6SM VCSH SCT050 BKN100
     FM250200 14007KT P6SM SCT120 BKN200=



000
FTUS44 KLCH 242116 AAA
TAFBPT
TAF AMD
KBPT 242116Z 2421/2518 18004KT P6SM VCSH SCT024 OVC035
     FM242300 17012G18KT P6SM VCSH BKN045 OVC100
     FM250400 16010KT P6SM SCT120 BKN200=



000
FTUS44 KLCH 242115 AAC
TAFLCH
TAF AMD
KLCH 242115Z 2421/2518 14013KT P6SM -SHRA SCT030 BKN040 BKN110
     FM242300 17010G16KT P6SM VCSH SCT025 BKN045 OVC100
     FM250000 16008KT P6SM SCT120 BKN200=



000
FTUS44 KLCH 242115 AAC
TAFLCH
TAF AMD
KLCH 242115Z 2421/2518 14013KT P6SM -SHRA SCT030 BKN040 BKN110
     FM242300 17010G16KT P6SM VCSH SCT025 BKN045 OVC100
     FM250000 16008KT P6SM SCT120 BKN200=



000
FTUS44 KLCH 241903 AAB
TAFAEX
TAF AMD
KAEX 241903Z 2419/2518 16016G20KT P6SM VCSH SCT035 BKN040
      TEMPO 2419/2422 VRB20G35KT 2SM +TSRA BKN025CB OVC040
     FM250000 17010G16KT P6SM VCSH SCT050 BKN100
     FM250200 14007KT P6SM SCT120 BKN200=



000
FTUS44 KLCH 241755 AAA
TAFAEX
TAF AMD
KAEX 241755Z 2418/2518 16016G20KT P6SM VCSH SCT035 BKN040
      TEMPO 2419/2422 VRB20G30KT 2SM +TSRA BKN025CB OVC040
     FM250000 17010G16KT P6SM VCSH SCT050 BKN100
     FM250200 14007KT P6SM SCT120 BKN200=



000
FTUS44 KLCH 241755 AAA
TAFAEX
TAF AMD
KAEX 241755Z 2418/2518 16016G20KT P6SM VCSH SCT035 BKN040
      TEMPO 2419/2422 VRB20G30KT 2SM +TSRA BKN025CB OVC040
     FM250000 17010G16KT P6SM VCSH SCT050 BKN100
     FM250200 14007KT P6SM SCT120 BKN200=



000
FTUS44 KLCH 241754 AAA
TAFLCH
TAF AMD
KLCH 241754Z 2418/2518 VRB05KT P6SM -SHRA SCT030 BKN040
      TEMPO 2418/2420 VRB20G30KT 5SM -TSRA FEW015CB SCT030 OVC090
     FM242000 17010G16KT P6SM VCSH SCT025 BKN045 OVC100
     FM250000 16008KT P6SM SCT120 BKN200=



000
FTUS44 KLCH 241754 AAA
TAFLCH
TAF AMD
KLCH 241754Z 2418/2518 VRB05KT P6SM -SHRA SCT030 BKN040
      TEMPO 2418/2420 VRB20G30KT 5SM -TSRA FEW015CB SCT030 OVC090
     FM242000 17010G16KT P6SM VCSH SCT025 BKN045 OVC100
     FM250000 16008KT P6SM SCT120 BKN200=



000
FTUS44 KLCH 241734
TAFBPT
TAF
KBPT 241734Z 2418/2518 16009KT P6SM -SHRA SCT024 BKN045 OVC090
     FM242100 17012G18KT P6SM VCSH BKN045 OVC100
     FM250100 16010KT P6SM SCT120 BKN200=



000
FTUS44 KLCH 241734
TAFAEX
TAF
KAEX 241734Z 2418/2518 16016G24KT P6SM VCSH SCT025 BKN035
      TEMPO 2418/2422 VRB20G30KT 2SM +TSRA BKN025CB OVC040
     FM250000 17010G16KT P6SM VCSH SCT050 BKN100
     FM250200 14007KT P6SM SCT120 BKN200=



000
FTUS44 KLCH 241734
TAFLFT
TAF
KLFT 241734Z 2418/2518 18012G18KT P6SM VCSH SCT025 BKN035 OVC050
     FM241900 19015G22KT P6SM VCSH SCT030 BKN050
      TEMPO 2419/2423 VRB20G30KT 2SM +TSRA BKN025CB OVC040
     FM250000 17008KT P6SM VCSH SCT050 BKN100
     FM250200 VRB04KT P6SM SCT120 BKN200=



000
FTUS44 KLCH 241734
TAFBPT
TAF
KBPT 241734Z 2418/2518 16009KT P6SM -SHRA SCT024 BKN045 OVC090
     FM242100 17012G18KT P6SM VCSH BKN045 OVC100
     FM250100 16010KT P6SM SCT120 BKN200=



000
FTUS44 KLCH 241734
TAFLCH
TAF
KLCH 241734Z 2418/2518 17008KT 5SM -SHRA SCT030 BKN040
      TEMPO 2418/2421 VRB20G30KT 1SM +TSRA BKN015CB OVC030
     FM242100 17010G16KT P6SM VCSH SCT025 BKN045 OVC100
     FM250000 16008KT P6SM SCT120 BKN200=



000
FTUS44 KLCH 241734
TAFAEX
TAF
KAEX 241734Z 2418/2518 16016G24KT P6SM VCSH SCT025 BKN035
      TEMPO 2418/2422 VRB20G30KT 2SM +TSRA BKN025CB OVC040
     FM250000 17010G16KT P6SM VCSH SCT050 BKN100
     FM250200 14007KT P6SM SCT120 BKN200=



000
FTUS44 KLCH 241734
TAFARA
TAF
KARA 241734Z 2418/2518 16014G20KT P6SM VCSH SCT025 BKN035
      TEMPO 2419/2423 VRB20G30KT 2SM +TSRA BKN025CB OVC040
     FM250000 17010G16KT P6SM VCSH SCT050 BKN100
     FM250200 15007KT P6SM SCT120 BKN200=



000
FTUS44 KLCH 241734
TAFLFT
TAF
KLFT 241734Z 2418/2518 18012G18KT P6SM VCSH SCT025 BKN035 OVC050
     FM241900 19015G22KT P6SM VCSH SCT030 BKN050
      TEMPO 2419/2423 VRB20G30KT 2SM +TSRA BKN025CB OVC040
     FM250000 17008KT P6SM VCSH SCT050 BKN100
     FM250200 VRB04KT P6SM SCT120 BKN200=



000
FTUS44 KLCH 241734
TAFARA
TAF
KARA 241734Z 2418/2518 16014G20KT P6SM VCSH SCT025 BKN035
      TEMPO 2419/2423 VRB20G30KT 2SM +TSRA BKN025CB OVC040
     FM250000 17010G16KT P6SM VCSH SCT050 BKN100
     FM250200 15007KT P6SM SCT120 BKN200=



000
FTUS44 KLCH 241734
TAFLCH
TAF
KLCH 241734Z 2418/2518 17008KT 5SM -SHRA SCT030 BKN040
      TEMPO 2418/2421 VRB20G30KT 1SM +TSRA BKN015CB OVC030
     FM242100 17010G16KT P6SM VCSH SCT025 BKN045 OVC100
     FM250000 16008KT P6SM SCT120 BKN200=



000
FTUS44 KLCH 241137
TAFAEX
TAF
KAEX 241137Z 2412/2512 13010KT P6SM VCSH SCT007
      TEMPO 2412/2414 BKN007
     FM241400 16013G19KT P6SM VCSH SCT012 BKN025
     FM241600 16016G24KT P6SM VCSH SCT025 BKN035
     FM241900 19015G22KT P6SM VCSH SCT030 BKN050
      TEMPO 2419/2423 VRB20G30KT 2SM +TSRA BKN025CB OVC040
     FM250000 17010G16KT P6SM VCSH SCT050 BKN100
     FM250200 14007KT P6SM SCT120 BKN200=



000
FTUS44 KLCH 241137
TAFLCH
TAF
KLCH 241137Z 2412/2512 16006KT P6SM VCSH SCT025
     FM241400 15013G20KT P6SM VCSH SCT025 BKN035
     FM241700 18018G25KT 5SM -SHRA SCT030 BKN040
      TEMPO 2417/2420 VRB20G30KT 1SM +TSRA BKN015CB OVC030
     FM242100 17010G16KT P6SM VCSH BKN045 OVC100
     FM250000 16008KT P6SM SCT120 BKN200=



000
FTUS44 KLCH 241137
TAFLFT
TAF
KLFT 241137Z 2412/2512 VRB03KT 5SM BR VCSH SCT005 BKN035
     FM241400 16012G18KT P6SM VCSH SCT025 BKN035
     FM242000 19015G22KT P6SM VCSH SCT030 BKN050
      TEMPO 2420/2424 VRB20G30KT 2SM +TSRA BKN025CB OVC040
     FM250000 17008KT P6SM VCSH SCT050 BKN100
     FM250200 VRB04KT P6SM SCT120 BKN200=



000
FTUS44 KLCH 241137
TAFBPT
TAF
KBPT 241137Z 2412/2512 16012KT P6SM VCSH SCT025
     FM241300 17015G22KT P6SM VCSH SCT025 BKN035
     FM241500 18019G27KT 5SM -SHRA SCT030 BKN040
      TEMPO 2415/2418 VRB20G30KT 1SM +TSRA BKN015CB OVC030
     FM242100 17012G18KT P6SM VCSH BKN045 OVC100
     FM250100 16010KT P6SM SCT120 BKN200=



000
FTUS44 KLCH 241137
TAFARA
TAF
KARA 241137Z 2412/2512 12008KT P6SM VCSH BKN035
     FM241400 16014G20KT P6SM VCSH SCT025 BKN035
     FM242000 19018G25KT P6SM VCSH SCT030 BKN050
      TEMPO 2420/2424 VRB20G30KT 2SM +TSRA BKN025CB OVC040
     FM250000 17010G16KT P6SM VCSH SCT050 BKN100
     FM250200 15007KT P6SM SCT120 BKN200=



000
FTUS44 KLCH 241137
TAFAEX
TAF
KAEX 241137Z 2412/2512 13010KT P6SM VCSH SCT007
      TEMPO 2412/2414 BKN007
     FM241400 16013G19KT P6SM VCSH SCT012 BKN025
     FM241600 16016G24KT P6SM VCSH SCT025 BKN035
     FM241900 19015G22KT P6SM VCSH SCT030 BKN050
      TEMPO 2419/2423 VRB20G30KT 2SM +TSRA BKN025CB OVC040
     FM250000 17010G16KT P6SM VCSH SCT050 BKN100
     FM250200 14007KT P6SM SCT120 BKN200=



000
FTUS44 KLCH 241137
TAFBPT
TAF
KBPT 241137Z 2412/2512 16012KT P6SM VCSH SCT025
     FM241300 17015G22KT P6SM VCSH SCT025 BKN035
     FM241500 18019G27KT 5SM -SHRA SCT030 BKN040
      TEMPO 2415/2418 VRB20G30KT 1SM +TSRA BKN015CB OVC030
     FM242100 17012G18KT P6SM VCSH BKN045 OVC100
     FM250100 16010KT P6SM SCT120 BKN200=



000
FTUS44 KLCH 241137
TAFLFT
TAF
KLFT 241137Z 2412/2512 VRB03KT 5SM BR VCSH SCT005 BKN035
     FM241400 16012G18KT P6SM VCSH SCT025 BKN035
     FM242000 19015G22KT P6SM VCSH SCT030 BKN050
      TEMPO 2420/2424 VRB20G30KT 2SM +TSRA BKN025CB OVC040
     FM250000 17008KT P6SM VCSH SCT050 BKN100
     FM250200 VRB04KT P6SM SCT120 BKN200=



000
FTUS44 KLCH 241137
TAFARA
TAF
KARA 241137Z 2412/2512 12008KT P6SM VCSH BKN035
     FM241400 16014G20KT P6SM VCSH SCT025 BKN035
     FM242000 19018G25KT P6SM VCSH SCT030 BKN050
      TEMPO 2420/2424 VRB20G30KT 2SM +TSRA BKN025CB OVC040
     FM250000 17010G16KT P6SM VCSH SCT050 BKN100
     FM250200 15007KT P6SM SCT120 BKN200=



000
FTUS44 KLCH 241137
TAFLCH
TAF
KLCH 241137Z 2412/2512 16006KT P6SM VCSH SCT025
     FM241400 15013G20KT P6SM VCSH SCT025 BKN035
     FM241700 18018G25KT 5SM -SHRA SCT030 BKN040
      TEMPO 2417/2420 VRB20G30KT 1SM +TSRA BKN015CB OVC030
     FM242100 17010G16KT P6SM VCSH BKN045 OVC100
     FM250000 16008KT P6SM SCT120 BKN200=



000
FTUS44 KLCH 241111 AAA
TAFLFT
TAF AMD
KLFT 241111Z 2411/2506 09003KT 5SM BR BKN003
     FM241300 11005KT P6SM VCSH BKN025
     FM241600 15012G18KT P6SM VCTS BKN025CB
     FM241800 18016KT P6SM TSRA BKN015CB
     FM250000 18008KT P6SM VCTS BKN045CB=



000
FTUS44 KLCH 240919 AAA
TAFAEX
TAF AMD
KAEX 240919Z 2409/2506 13005KT P6SM SCT007
      TEMPO 2409/2413 5SM BR BKN007
     FM241400 13012G18KT P6SM BKN025
     FM241800 16014KT P6SM TSRA BKN015CB
     FM250000 15008KT P6SM VCTS BKN045CB=



000
FTUS44 KLCH 240520
TAFLFT
TAF
KLFT 240520Z 2406/2506 09003KT P6SM BKN150
     FM240900 11005KT P6SM VCSH BKN025
     FM241400 15012G18KT P6SM VCTS BKN025CB
     FM241800 18016KT P6SM TSRA BKN015CB
     FM250000 18008KT P6SM VCTS BKN045CB=



000
FTUS44 KLCH 240520
TAFARA
TAF
KARA 240520Z 2406/2506 12005KT P6SM BKN150
     FM240900 12008KT P6SM VCSH BKN025
     FM241400 16014G21KT P6SM VCTS BKN025CB
     FM241800 18016KT P6SM TSRA BKN015CB
     FM250000 18008KT P6SM VCTS BKN045CB=



000
FTUS44 KLCH 240520
TAFBPT
TAF
KBPT 240520Z 2406/2506 16014KT P6SM SCT025 BKN150
     FM240900 16010KT P6SM VCSH BKN025
     FM241400 17013G20KT P6SM VCTS BKN025CB
     FM241800 18018KT P6SM TSRA BKN015CB
     FM250000 16008KT P6SM VCTS BKN045CB=



000
FTUS44 KLCH 240520
TAFLCH
TAF
KLCH 240520Z 2406/2506 15006KT P6SM SCT025 BKN150
     FM240900 13006KT P6SM VCSH BKN025
     FM241400 15013G20KT P6SM VCTS BKN025CB
     FM241800 18018KT P6SM TSRA BKN015CB
     FM250000 16008KT P6SM VCTS BKN045CB=



000
FTUS44 KLCH 240520
TAFLFT
TAF
KLFT 240520Z 2406/2506 09003KT P6SM BKN150
     FM240900 11005KT P6SM VCSH BKN025
     FM241400 15012G18KT P6SM VCTS BKN025CB
     FM241800 18016KT P6SM TSRA BKN015CB
     FM250000 18008KT P6SM VCTS BKN045CB=



000
FTUS44 KLCH 240520
TAFARA
TAF
KARA 240520Z 2406/2506 12005KT P6SM BKN150
     FM240900 12008KT P6SM VCSH BKN025
     FM241400 16014G21KT P6SM VCTS BKN025CB
     FM241800 18016KT P6SM TSRA BKN015CB
     FM250000 18008KT P6SM VCTS BKN045CB=



000
FTUS44 KLCH 240520
TAFAEX
TAF
KAEX 240520Z 2406/2506 10005KT P6SM SCT150
     FM240900 13010KT P6SM BKN025
     FM241400 13012G18KT P6SM BKN025
     FM241800 16014KT P6SM TSRA BKN015CB
     FM250000 15008KT P6SM VCTS BKN045CB=



000
FTUS44 KLCH 240213 AAA
TAFBPT
TAF AMD
KBPT 240213Z 2402/2424 13009KT P6SM BKN021
     FM240900 16010KT P6SM VCSH BKN025
     FM241400 17013G20KT P6SM VCTS BKN025CB
     FM241800 18018KT P6SM TSRA BKN015CB=



000
FTUS44 KLCH 232328
TAFLFT
TAF
KLFT 232328Z 2400/2424 11006KT P6SM VCTS BKN035CB BKN090
     FM240200 11005KT P6SM SCT025 BKN150
     FM240900 11005KT P6SM VCSH BKN025
     FM241400 15012G18KT P6SM VCTS BKN025CB
     FM241800 18016KT P6SM TSRA BKN015CB=



000
FTUS44 KLCH 232328
TAFARA
TAF
KARA 232328Z 2400/2424 10008KT P6SM VCTS SCT035CB BKN090
     FM240200 12006KT P6SM SCT025 BKN150
     FM240900 12008KT P6SM VCSH BKN025
     FM241400 16014G21KT P6SM VCTS BKN025CB
     FM241800 18016KT P6SM TSRA BKN015CB=



000
FTUS44 KLCH 232328
TAFAEX
TAF
KAEX 232328Z 2400/2424 13011KT P6SM VCTS SCT035CB BKN150
     FM240200 12006KT P6SM BKN150
     FM240900 13010KT P6SM BKN025
     FM241400 13012G18KT P6SM BKN025
     FM241800 16014KT P6SM TSRA BKN015CB=



000
FTUS44 KLCH 232328
TAFLCH
TAF
KLCH 232328Z 2400/2424 17008KT P6SM VCTS SCT035CB BKN150
     FM240200 13007KT P6SM BKN150
     FM240900 13006KT P6SM VCSH BKN025
     FM241400 15013G20KT P6SM VCTS BKN025CB
     FM241800 18018KT P6SM TSRA BKN015CB=



000
FTUS44 KLCH 232328
TAFBPT
TAF
KBPT 232328Z 2400/2424 14014KT P6SM VCTS SCT030CB BKN150
     FM240200 14010KT P6SM BKN150
     FM240900 16010KT P6SM VCSH BKN025
     FM241400 17013G20KT P6SM VCTS BKN025CB
     FM241800 18018KT P6SM TSRA BKN015CB=



000
FTUS44 KLCH 231849 AAA
TAFLCH
TAF AMD
KLCH 231849Z 2319/2418 14011KT P6SM VCTS SCT025 BKN040CB
     FM240100 13008KT P6SM SCT025 BKN150
     FM240900 13007KT P6SM VCSH BKN025
     FM241400 15013G20KT P6SM VCTS BKN025CB=



000
FTUS44 KLCH 231849 AAA
TAFLCH
TAF AMD
KLCH 231849Z 2319/2418 14011KT P6SM VCTS SCT025 BKN040CB
     FM240100 13008KT P6SM SCT025 BKN150
     FM240900 13007KT P6SM VCSH BKN025
     FM241400 15013G20KT P6SM VCTS BKN025CB=



000
FTUS44 KLCH 231720
TAFLFT
TAF
KLFT 231720Z 2318/2418 13010KT P6SM VCTS SCT025 BKN040CB
      TEMPO 2318/2322 VRB15G25KT 4SM -TSRA BKN025CB
     FM240100 11005KT P6SM SCT025 BKN150
     FM240900 11005KT P6SM VCSH BKN025
     FM241400 15012G18KT P6SM VCTS BKN025CB=



000
FTUS44 KLCH 231720
TAFBPT
TAF
KBPT 231720Z 2318/2418 14011KT P6SM VCTS SCT025 BKN040CB
      TEMPO 2318/2322 VRB15G25KT 3SM -TSRA BKN025CB
     FM240100 14011KT P6SM SCT025 BKN200
     FM240700 15011KT P6SM VCSH BKN025
     FM241400 14015G23KT P6SM VCTS BKN025CB=



000
FTUS44 KLCH 231720
TAFLCH
TAF
KLCH 231720Z 2318/2418 14010KT P6SM VCTS SCT025 BKN040CB
      TEMPO 2318/2322 VRB15G25KT 3SM -TSRA BKN025CB
     FM240100 13008KT P6SM SCT025 BKN150
     FM240900 13007KT P6SM VCSH BKN025
     FM241400 15013G20KT P6SM VCTS BKN025CB=



000
FTUS44 KLCH 231720
TAFAEX
TAF
KAEX 231720Z 2318/2418 14010KT P6SM VCTS SCT025 BKN040CB
      TEMPO 2320/2324 VRB15G25KT 3SM -TSRA BKN025CB
     FM240300 14008KT P6SM SCT025 BKN150
     FM240900 13006KT P6SM BKN025
     FM241400 13012G18KT P6SM BKN025=



000
FTUS44 KLCH 231720
TAFARA
TAF
KARA 231720Z 2318/2418 13012KT P6SM VCTS SCT025 BKN040CB
      TEMPO 2318/2322 VRB15G25KT 4SM -TSRA BKN025CB
     FM240100 13008KT P6SM SCT025 BKN150
     FM240900 11008KT P6SM VCSH BKN025
     FM241400 16014G21KT P6SM VCTS BKN025CB=



000
FTUS44 KLCH 231505 AAB
TAFLCH
TAF AMD
KLCH 231505Z 2315/2412 14010KT P6SM VCTS SCT015 BKN025CB
      TEMPO 2318/2322 VRB12G20KT 3SM -TSRA SCT025 BKN035CB
     FM240100 15007KT P6SM SCT035 BKN150
     FM240900 13008KT P6SM VCSH BKN025=



000
FTUS44 KLCH 231503 AAA
TAFBPT
TAF AMD
KBPT 231503Z 2315/2412 13011KT P6SM VCTS SCT015 BKN025CB
      TEMPO 2318/2322 VRB15G25KT 3SM -TSRA BKN025CB
     FM240100 14012KT P6SM SCT030 BKN200
     FM240700 15013KT P6SM VCSH BKN025=



000
FTUS44 KLCH 231503 AAA
TAFBPT
TAF AMD
KBPT 231503Z 2315/2412 13011KT P6SM VCTS SCT015 BKN025CB
      TEMPO 2318/2322 VRB15G25KT 3SM -TSRA BKN025CB
     FM240100 14012KT P6SM SCT030 BKN200
     FM240700 15013KT P6SM VCSH BKN025=



000
FTUS44 KLCH 231131
TAFARA
TAF
KARA 231131Z 2312/2412 VRB04KT P6SM SCT025 BKN250
      TEMPO 2312/2314 4SM BR
     FM231700 13010KT P6SM VCTS BKN050CB
      TEMPO 2319/2323 4SM -TSRA SCT025 BKN035CB
     FM240100 13008KT P6SM SCT035 BKN200
     FM240900 12006KT P6SM BKN025=



000
FTUS44 KLCH 231131
TAFAEX
TAF
KAEX 231131Z 2312/2412 VRB04KT P6SM SCT025 SCT250
     FM231500 12008KT P6SM SCT035 BKN200
     FM231800 14008KT P6SM VCTS BKN050CB
      TEMPO 2320/2324 VRB10G20KT 3SM -TSRA SCT025 BKN035CB
     FM240200 13007KT P6SM SCT035 BKN200
     FM240900 14006KT P6SM BKN025=



000
FTUS44 KLCH 231131
TAFLCH
TAF
KLCH 231131Z 2312/2412 09006KT P6SM SCT025 BKN200
     FM231500 14010KT P6SM VCTS BKN050CB
      TEMPO 2318/2322 VRB12G20KT 3SM -TSRA SCT025 BKN035CB
     FM240100 15007KT P6SM SCT035 BKN150
     FM240900 13008KT P6SM VCSH BKN025=



000
FTUS44 KLCH 231131
TAFLFT
TAF
KLFT 231131Z 2312/2412 VRB04KT P6SM SCT025 BKN250
      TEMPO 2312/2314 4SM BR
     FM231700 12007KT P6SM VCTS BKN050CB
      TEMPO 2319/2323 4SM -TSRA SCT025 BKN035CB
     FM240100 14005KT P6SM SCT035 BKN200
     FM240900 13005KT P6SM BKN025=



000
FTUS44 KLCH 231131
TAFBPT
TAF
KBPT 231131Z 2312/2412 09006KT P6SM SCT025 BKN200
      TEMPO 2312/2315 BKN020
     FM231500 13011KT P6SM VCTS BKN035CB
      TEMPO 2318/2322 VRB15G25KT 3SM -TSRA BKN025CB
     FM240100 14012KT P6SM SCT030 BKN200
     FM240700 15013KT P6SM VCSH BKN025=



000
FTUS44 KLCH 231131
TAFBPT
TAF
KBPT 231131Z 2312/2412 09006KT P6SM SCT025 BKN200
      TEMPO 2312/2315 BKN020
     FM231500 13011KT P6SM VCTS BKN035CB
      TEMPO 2318/2322 VRB15G25KT 3SM -TSRA BKN025CB
     FM240100 14012KT P6SM SCT030 BKN200
     FM240700 15013KT P6SM VCSH BKN025=



000
FTUS44 KLCH 231131
TAFARA
TAF
KARA 231131Z 2312/2412 VRB04KT P6SM SCT025 BKN250
      TEMPO 2312/2314 4SM BR
     FM231700 13010KT P6SM VCTS BKN050CB
      TEMPO 2319/2323 4SM -TSRA SCT025 BKN035CB
     FM240100 13008KT P6SM SCT035 BKN200
     FM240900 12006KT P6SM BKN025=



000
FTUS44 KLCH 231131
TAFLFT
TAF
KLFT 231131Z 2312/2412 VRB04KT P6SM SCT025 BKN250
      TEMPO 2312/2314 4SM BR
     FM231700 12007KT P6SM VCTS BKN050CB
      TEMPO 2319/2323 4SM -TSRA SCT025 BKN035CB
     FM240100 14005KT P6SM SCT035 BKN200
     FM240900 13005KT P6SM BKN025=



000
FTUS44 KLCH 231131
TAFLCH
TAF
KLCH 231131Z 2312/2412 09006KT P6SM SCT025 BKN200
     FM231500 14010KT P6SM VCTS BKN050CB
      TEMPO 2318/2322 VRB12G20KT 3SM -TSRA SCT025 BKN035CB
     FM240100 15007KT P6SM SCT035 BKN150
     FM240900 13008KT P6SM VCSH BKN025=



000
FTUS44 KLCH 231131
TAFAEX
TAF
KAEX 231131Z 2312/2412 VRB04KT P6SM SCT025 SCT250
     FM231500 12008KT P6SM SCT035 BKN200
     FM231800 14008KT P6SM VCTS BKN050CB
      TEMPO 2320/2324 VRB10G20KT 3SM -TSRA SCT025 BKN035CB
     FM240200 13007KT P6SM SCT035 BKN200
     FM240900 14006KT P6SM BKN025=



000
FTUS44 KLCH 230520
TAFLCH
TAF
KLCH 230520Z 2306/2406 07008KT P6SM FEW023
     FM231000 11004KT P6SM SCT025 BKN250
     FM231200 09006KT P6SM SCT013 BKN020
     FM231500 12010KT P6SM VCTS SCT016 BKN025CB
      TEMPO 2318/2322 VRB12G17KT 3SM -TSRA SCT025 BKN035CB
     FM240000 14009KT P6SM SCT045 OVC080=



000
FTUS44 KLCH 230520
TAFBPT
TAF
KBPT 230520Z 2306/2406 10007KT P6SM FEW017
      TEMPO 2306/2310 SCT017 SCT028
     FM231000 10011KT P6SM SCT025 BKN045
     FM231200 09006KT P6SM FEW018 BKN025
     FM231500 13011KT P6SM VCTS SCT020CB OVC030
      TEMPO 2318/2322 VRB12G18KT 4SM -TSRA BKN025CB
     FM240000 13013KT P6SM OVC250=



000
FTUS44 KLCH 230520
TAFARA
TAF
KARA 230520Z 2306/2406 04005KT P6SM VCSH FEW025 BKN035
     FM231000 VRB03KT P6SM VCSH SCT025 BKN250
     FM231200 VRB03KT P6SM FEW014 BKN025
     FM231500 11006KT P6SM VCSH BKN025
      TEMPO 2316/2320 5SM TSRA SCT022 BKN035CB
     FM232000 14010KT P6SM VCSH SCT030 OVC070=



000
FTUS44 KLCH 230520
TAFLFT
TAF
KLFT 230520Z 2306/2406 VRB04KT P6SM BKN027 OVC035
      TEMPO 2308/2312 SCT027 BKN035
     FM231200 VRB05KT P6SM SCT015 BKN025
     FM231700 12006KT P6SM VCTS BKN025CB
      TEMPO 2319/2323 P6SM -TSRA SCT025 OVC035CB
     FM240000 12004KT P6SM SCT040 OVC070=



000
FTUS44 KLCH 230520
TAFAEX
TAF
KAEX 230520Z 2306/2406 VRB04KT P6SM OVC030
     FM231000 VRB04KT P6SM BKN025 BKN250
     FM231200 11004KT P6SM SCT016 BKN020
     FM231500 12008KT P6SM BKN025
     FM231800 13007KT P6SM VCTS SCT025 BKN030CB
      TEMPO 2319/2323 3SM -TSRA SCT020 BKN028CB
     FM240000 13007KT P6SM SCT050 OVC250=



000
FTUS44 KLCH 230318 AAB
TAFARA
TAF AMD
KARA 230318Z 2303/2324 VRB05KT P6SM VCSH FEW027 BKN035
     FM230500 VRB03KT P6SM VCSH SCT025 BKN250
     FM231200 VRB03KT P6SM FEW014 BKN025
     FM231500 11006KT P6SM VCSH BKN025
      TEMPO 2316/2320 5SM TSRA SCT022 BKN035CB=



000
FTUS44 KLCH 230318 AAB
TAFARA
TAF AMD
KARA 230318Z 2303/2324 VRB05KT P6SM VCSH FEW027 BKN035
     FM230500 VRB03KT P6SM VCSH SCT025 BKN250
     FM231200 VRB03KT P6SM FEW014 BKN025
     FM231500 11006KT P6SM VCSH BKN025
      TEMPO 2316/2320 5SM TSRA SCT022 BKN035CB=



000
FTUS44 KLCH 230316 AAB
TAFBPT
TAF AMD
KBPT 230316Z 2303/2324 10007KT P6SM SKC
      TEMPO 2303/2306 SCT028 OVC040
     FM230600 10011KT P6SM SCT025 BKN045
     FM231200 09006KT P6SM FEW018 BKN025
     FM231500 13011KT P6SM VCTS SCT020CB OVC030
      TEMPO 2318/2322 VRB12G18KT 4SM -TSRA BKN025CB=



000
FTUS44 KLCH 230316 AAB
TAFBPT
TAF AMD
KBPT 230316Z 2303/2324 10007KT P6SM SKC
      TEMPO 2303/2306 SCT028 OVC040
     FM230600 10011KT P6SM SCT025 BKN045
     FM231200 09006KT P6SM FEW018 BKN025
     FM231500 13011KT P6SM VCTS SCT020CB OVC030
      TEMPO 2318/2322 VRB12G18KT 4SM -TSRA BKN025CB=



000
FTUS44 KLCH 230316 AAA
TAFAEX
TAF AMD
KAEX 230316Z 2303/2324 VRB04KT P6SM FEW025 SCT250
     FM230600 VRB04KT P6SM SCT025 BKN250
     FM231200 11004KT P6SM SCT016 BKN020
     FM231500 12008KT P6SM BKN025
     FM231800 13007KT P6SM VCTS SCT025 BKN030CB
      TEMPO 2319/2323 3SM -TSRA SCT020 BKN028CB=



000
FTUS44 KLCH 230050 AAA
TAFBPT
TAF AMD
KBPT 230050Z 2301/2324 10007KT P6SM BKN028 OVC045
      TEMPO 2301/2304 SCT028 OVC040
     FM230400 10011KT P6SM SCT025 BKN045
     FM231200 09006KT P6SM FEW018 BKN025
     FM231500 13011KT P6SM VCTS SCT020CB OVC030
      TEMPO 2318/2322 VRB12G18KT 4SM -TSRA BKN025CB=



000
FTUS44 KLCH 230049 AAA
TAFARA
TAF AMD
KARA 230049Z 2301/2324 VRB05KT P6SM VCSH BKN027 BKN035
      TEMPO 2301/2305 6SM TSRA SCT027 BKN035CB
     FM230500 VRB03KT P6SM VCSH SCT025 BKN250
     FM231200 VRB03KT P6SM FEW014 BKN025
     FM231500 11006KT P6SM VCSH BKN025
      TEMPO 2316/2320 5SM TSRA SCT022 BKN035CB=



000
FTUS44 KLCH 230047 AAA
TAFLFT
TAF AMD
KLFT 230047Z 2301/2324 VRB04KT P6SM VCSH FEW024 SCT040 BKN050
      TEMPO 2301/2303 SCT024 OVC030
     FM230300 VRB03KT P6SM VCSH SCT025 BKN250
     FM231200 VRB03KT P6SM SCT015 BKN025
     FM231700 11006KT P6SM VCTS BKN025CB
      TEMPO 2319/2323 P6SM -TSRA SCT025 OVC035CB=



000
FTUS44 KLCH 222338
TAFLCH
TAF
KLCH 222338Z 2300/2324 10009KT P6SM FEW023 OVC035
     FM230300 11004KT P6SM SCT025 BKN250
     FM231200 09006KT P6SM SCT013 BKN020
     FM231500 12010KT P6SM VCTS SCT016 BKN025CB
      TEMPO 2318/2322 VRB12G17KT 3SM -TSRA SCT025 BKN035CB=



000
FTUS44 KLCH 222338
TAFBPT
TAF
KBPT 222338Z 2300/2324 10006KT P6SM BKN025 OVC035
     FM230400 10011KT P6SM SCT025 BKN045
     FM231200 09006KT P6SM FEW018 BKN025
     FM231500 13011KT P6SM VCTS SCT020CB OVC030
      TEMPO 2318/2322 VRB12G18KT 4SM -TSRA BKN025CB=



000
FTUS44 KLCH 222338
TAFLCH
TAF
KLCH 222338Z 2300/2324 10009KT P6SM FEW023 OVC035
     FM230300 11004KT P6SM SCT025 BKN250
     FM231200 09006KT P6SM SCT013 BKN020
     FM231500 12010KT P6SM VCTS SCT016 BKN025CB
      TEMPO 2318/2322 VRB12G17KT 3SM -TSRA SCT025 BKN035CB=



000
FTUS44 KLCH 222338
TAFARA
TAF
KARA 222338Z 2300/2324 VRB05KT P6SM FEW030 BKN045
     FM230500 VRB03KT P6SM SCT025 BKN250
     FM231200 VRB03KT P6SM FEW014 BKN025
     FM231500 11006KT P6SM VCSH BKN025
      TEMPO 2316/2320 5SM TSRA SCT022 BKN035CB=



000
FTUS44 KLCH 222338
TAFLFT
TAF
KLFT 222338Z 2300/2324 VRB04KT P6SM FEW024 SCT040 BKN050
      TEMPO 2300/2303 SCT024 OVC030
     FM230300 VRB03KT P6SM SCT025 BKN250
     FM231200 VRB03KT P6SM SCT015 BKN025
     FM231700 11006KT P6SM VCTS BKN025CB
      TEMPO 2319/2323 P6SM -TSRA SCT025 OVC035CB=



000
FTUS44 KLCH 222338
TAFAEX
TAF
KAEX 222338Z 2300/2324 VRB04KT P6SM FEW025 SCT250
      TEMPO 2300/2304 BKN027 OVC045
     FM230400 VRB04KT P6SM SCT025 BKN250
     FM231200 11004KT P6SM SCT016 BKN020
     FM231500 12008KT P6SM BKN025
     FM231800 13007KT P6SM VCTS SCT025 BKN030CB
      TEMPO 2319/2323 3SM -TSRA SCT020 BKN028CB=



000
FTUS44 KLCH 222338
TAFARA
TAF
KARA 222338Z 2300/2324 VRB05KT P6SM FEW030 BKN045
     FM230500 VRB03KT P6SM SCT025 BKN250
     FM231200 VRB03KT P6SM FEW014 BKN025
     FM231500 11006KT P6SM VCSH BKN025
      TEMPO 2316/2320 5SM TSRA SCT022 BKN035CB=



000
FTUS44 KLCH 222338
TAFBPT
TAF
KBPT 222338Z 2300/2324 10006KT P6SM BKN025 OVC035
     FM230400 10011KT P6SM SCT025 BKN045
     FM231200 09006KT P6SM FEW018 BKN025
     FM231500 13011KT P6SM VCTS SCT020CB OVC030
      TEMPO 2318/2322 VRB12G18KT 4SM -TSRA BKN025CB=



000
FTUS44 KLCH 222338
TAFAEX
TAF
KAEX 222338Z 2300/2324 VRB04KT P6SM FEW025 SCT250
      TEMPO 2300/2304 BKN027 OVC045
     FM230400 VRB04KT P6SM SCT025 BKN250
     FM231200 11004KT P6SM SCT016 BKN020
     FM231500 12008KT P6SM BKN025
     FM231800 13007KT P6SM VCTS SCT025 BKN030CB
      TEMPO 2319/2323 3SM -TSRA SCT020 BKN028CB=



000
FTUS44 KLCH 222338
TAFLFT
TAF
KLFT 222338Z 2300/2324 VRB04KT P6SM FEW024 SCT040 BKN050
      TEMPO 2300/2303 SCT024 OVC030
     FM230300 VRB03KT P6SM SCT025 BKN250
     FM231200 VRB03KT P6SM SCT015 BKN025
     FM231700 11006KT P6SM VCTS BKN025CB
      TEMPO 2319/2323 P6SM -TSRA SCT025 OVC035CB=



000
FTUS44 KLCH 222206 AAA
TAFARA
TAF AMD
KARA 222206Z 2222/2318 07004KT P6SM SCT026 BKN035
     FM230100 VRB03KT P6SM SCT025 BKN250
     FM231200 VRB03KT P6SM VCSH BKN025
     FM231500 11006KT P6SM VCTS BKN025CB=



000
FTUS44 KLCH 222206 AAA
TAFLFT
TAF AMD
KLFT 222206Z 2222/2318 VRB04KT P6SM FEW024 SCT030
      TEMPO 2222/2301 SCT024 OVC030
     FM230100 VRB03KT P6SM SCT025 BKN250
     FM231200 VRB03KT P6SM VCSH BKN025
     FM231500 11006KT P6SM VCTS BKN025CB=



000
FTUS44 KLCH 222204 AAA
TAFAEX
TAF AMD
KAEX 222204Z 2222/2318 VRB04KT P6SM FEW025 SCT250
     FM230100 VRB04KT P6SM SCT025 BKN250
     FM231200 11004KT P6SM VCSH BKN025
     FM231500 12008KT P6SM VCTS BKN025CB=



000
FTUS44 KLCH 221730
TAFBPT
TAF
KBPT 221730Z 2218/2318 07009KT P6SM BKN015
     FM222100 10011KT P6SM BKN025
     FM231200 09006KT P6SM VCSH BKN025
     FM231500 13011KT P6SM VCTS BKN025CB=



000
FTUS44 KLCH 221730
TAFARA
TAF
KARA 221730Z 2218/2318 05006KT P6SM BKN015
     FM222100 06004KT P6SM BKN025
     FM230100 VRB03KT P6SM SCT025 BKN250
     FM231200 VRB03KT P6SM VCSH BKN025
     FM231500 11006KT P6SM VCTS BKN025CB=



000
FTUS44 KLCH 221730
TAFLCH
TAF
KLCH 221730Z 2218/2318 07009KT P6SM SCT015 BKN025
     FM230100 11004KT P6SM SCT025 BKN250
     FM231200 09006KT P6SM VCSH BKN025
     FM231500 12010KT P6SM VCTS BKN025CB=



000
FTUS44 KLCH 221730
TAFAEX
TAF
KAEX 221730Z 2218/2318 05006KT P6SM BKN015
     FM222100 07005KT P6SM BKN025
     FM230100 07004KT P6SM SCT025 BKN250
     FM231200 11004KT P6SM VCSH BKN025
     FM231500 12008KT P6SM VCTS BKN025CB=



000
FTUS44 KLCH 221730
TAFLFT
TAF
KLFT 221730Z 2218/2318 05006KT P6SM BKN015
     FM222100 06004KT P6SM BKN025
     FM230100 VRB03KT P6SM SCT025 BKN250
     FM231200 VRB03KT P6SM VCSH BKN025
     FM231500 11006KT P6SM VCTS BKN025CB=



000
FTUS44 KLCH 221730
TAFBPT
TAF
KBPT 221730Z 2218/2318 07009KT P6SM BKN015
     FM222100 10011KT P6SM BKN025
     FM231200 09006KT P6SM VCSH BKN025
     FM231500 13011KT P6SM VCTS BKN025CB=



000
FTUS44 KLCH 221730
TAFLFT
TAF
KLFT 221730Z 2218/2318 05006KT P6SM BKN015
     FM222100 06004KT P6SM BKN025
     FM230100 VRB03KT P6SM SCT025 BKN250
     FM231200 VRB03KT P6SM VCSH BKN025
     FM231500 11006KT P6SM VCTS BKN025CB=



000
FTUS44 KLCH 221730
TAFARA
TAF
KARA 221730Z 2218/2318 05006KT P6SM BKN015
     FM222100 06004KT P6SM BKN025
     FM230100 VRB03KT P6SM SCT025 BKN250
     FM231200 VRB03KT P6SM VCSH BKN025
     FM231500 11006KT P6SM VCTS BKN025CB=



000
FTUS44 KLCH 221730
TAFLCH
TAF
KLCH 221730Z 2218/2318 07009KT P6SM SCT015 BKN025
     FM230100 11004KT P6SM SCT025 BKN250
     FM231200 09006KT P6SM VCSH BKN025
     FM231500 12010KT P6SM VCTS BKN025CB=



000
FTUS44 KLCH 221730
TAFAEX
TAF
KAEX 221730Z 2218/2318 05006KT P6SM BKN015
     FM222100 07005KT P6SM BKN025
     FM230100 07004KT P6SM SCT025 BKN250
     FM231200 11004KT P6SM VCSH BKN025
     FM231500 12008KT P6SM VCTS BKN025CB=



000
FTUS44 KLCH 221611 AAA
TAFAEX
TAF AMD
KAEX 221611Z 2216/2312 06005KT P6SM BKN012
     FM221800 07006KT P6SM FEW015 BKN025
     FM222000 07006KT P6SM FEW025 BKN040
     FM230000 08003KT P6SM BKN250=



000
FTUS44 KLCH 221611 AAA
TAFAEX
TAF AMD
KAEX 221611Z 2216/2312 06005KT P6SM BKN012
     FM221800 07006KT P6SM FEW015 BKN025
     FM222000 07006KT P6SM FEW025 BKN040
     FM230000 08003KT P6SM BKN250=



000
FTUS44 KLCH 221524 AAA
TAFLFT
TAF AMD
KLFT 221524Z 2215/2312 04008KT P6SM BKN010
     FM221800 05007KT P6SM SCT025 BKN035
     FM230000 07003KT P6SM VCSH SCT040 SCT250=



000
FTUS44 KLCH 221501 AAC
TAFBPT
TAF AMD
KBPT 221501Z 2215/2312 05008KT P6SM BKN010
     FM221800 09009KT P6SM VCSH SCT020 BKN035 BKN050
      TEMPO 2218/2222 BKN020
     FM230500 09004KT P6SM VCTS SCT035CB BKN050=



000
FTUS44 KLCH 221426 AAB
TAFBPT
TAF AMD
KBPT 221426Z 2214/2312 05008KT P6SM OVC005
     FM221600 09009KT P6SM VCSH SCT020 BKN035 BKN050
      TEMPO 2216/2220 BKN020
     FM230500 09004KT P6SM VCTS SCT035CB BKN050=



000
FTUS44 KLCH 221320 AAA
TAFBPT
TAF AMD
KBPT 221320Z 2213/2312 05008KT 4SM BR OVC005
     FM221600 09009KT P6SM VCSH SCT020 BKN035 BKN050
      TEMPO 2216/2220 BKN020
     FM230500 09004KT P6SM VCTS SCT035CB BKN050=



    US Dept of Commerce
    National Oceanic and Atmospheric Administration
    National Weather Service
    1325 East West Highway
    Silver Spring, MD 20910
    Page Author: NWS Internet Services Team
Disclaimer
Information Quality
Credits
Glossary
Privacy Policy
Freedom of Information Act (FOIA)
About Us
Career Opportunities